createdAt,value
2023-05-25T00:01:30.290Z,30.10
2023-05-25T00:04:34.486Z,30.20
2023-05-25T00:07:37.138Z,30.10
2023-05-25T00:10:39.040Z,30.10
2023-05-25T00:13:41.616Z,30.30
2023-05-25T00:16:45.653Z,30.20
2023-05-25T00:19:48.100Z,30.10
2023-05-25T00:22:49.991Z,30.20
2023-05-25T00:25:52.285Z,30.20
2023-05-25T00:28:54.288Z,30.30
2023-05-25T00:31:56.593Z,30.10
2023-05-25T00:34:58.620Z,30.30
2023-05-25T00:38:01.005Z,30.40
2023-05-25T00:41:03.012Z,30.30
2023-05-25T00:44:05.464Z,30.20
2023-05-25T00:47:07.475Z,30.20
2023-05-25T00:50:11.081Z,30.30
2023-05-25T00:53:14.654Z,30.20
2023-05-25T00:56:24.258Z,30.30
2023-05-25T00:59:36.056Z,30.20
2023-05-25T01:02:41.144Z,30.30
2023-05-25T01:05:47.415Z,30.30
2023-05-25T01:09:00.346Z,30.10
2023-05-25T01:12:03.840Z,30.10
2023-05-25T01:15:06.703Z,30.30
2023-05-25T01:18:09.542Z,30.20
2023-05-25T01:21:18.131Z,30.20
2023-05-25T01:24:32.358Z,30.20
2023-05-25T01:27:43.680Z,30.30
2023-05-25T01:30:48.514Z,30.10
2023-05-25T01:33:52.636Z,30.30
2023-05-25T01:36:55.027Z,30.70
2023-05-25T01:39:57.647Z,31.10
2023-05-25T01:42:59.656Z,31.00
2023-05-25T01:46:38.309Z,31.40
2023-05-25T01:49:45.858Z,31.00
2023-05-25T01:53:02.566Z,31.10
2023-05-25T01:56:11.390Z,31.30
2023-05-25T01:59:16.460Z,30.90
2023-05-25T02:02:19.900Z,30.70
2023-05-25T02:05:22.286Z,30.60
2023-05-25T02:08:24.342Z,31.40
2023-05-25T02:11:27.746Z,30.80
2023-05-25T02:14:29.789Z,30.70
2023-05-25T02:17:32.287Z,30.80
2023-05-25T02:20:36.312Z,30.50
2023-05-25T02:23:39.000Z,30.40
2023-05-25T02:26:40.964Z,30.40
2023-05-25T02:29:43.249Z,30.30
2023-05-25T02:32:45.295Z,30.20
2023-05-25T02:35:47.744Z,30.10
2023-05-25T02:38:52.049Z,30.00
2023-05-25T02:41:54.857Z,30.10
2023-05-25T02:44:56.905Z,30.20
2023-05-25T02:47:59.536Z,30.10
2023-05-25T02:51:02.944Z,30.10
2023-05-25T02:54:05.436Z,30.30
2023-05-25T02:57:08.400Z,30.20
2023-05-25T03:00:14.644Z,30.10
2023-05-25T03:03:16.649Z,30.20
2023-05-25T03:06:19.673Z,30.00
2023-05-25T03:09:21.629Z,30.00
2023-05-25T03:12:23.876Z,30.00
2023-05-25T03:15:25.887Z,30.00
2023-05-25T03:18:28.174Z,30.00
2023-05-25T03:21:30.161Z,29.90
2023-05-25T03:24:32.600Z,29.80
2023-05-25T03:27:34.664Z,29.80
2023-05-25T03:30:36.948Z,29.80
2023-05-25T03:33:39.264Z,29.80
2023-05-25T03:36:46.025Z,29.80
2023-05-25T03:39:48.076Z,29.60
2023-05-25T03:42:50.393Z,29.60
2023-05-25T03:45:52.393Z,29.70
2023-05-25T03:48:54.673Z,29.60
2023-05-25T03:51:56.885Z,29.60
2023-05-25T03:55:01.689Z,29.60
2023-05-25T03:58:03.661Z,29.40
2023-05-25T04:01:05.943Z,29.40
2023-05-25T04:04:08.121Z,29.10
2023-05-25T04:07:10.933Z,29.10
2023-05-25T04:10:12.991Z,29.00
2023-05-25T04:13:15.648Z,28.80
2023-05-25T04:16:17.637Z,28.80
2023-05-25T04:19:20.349Z,28.60
2023-05-25T04:22:22.380Z,28.60
2023-05-25T04:25:25.756Z,28.50
2023-05-25T04:28:28.659Z,28.50
2023-05-25T04:31:31.158Z,28.30
2023-05-25T04:34:33.879Z,27.90
2023-05-25T04:37:37.070Z,27.40
2023-05-25T04:40:41.783Z,27.20
2023-05-25T04:44:04.023Z,27.60
2023-05-25T04:47:08.715Z,27.40
2023-05-25T04:50:12.285Z,27.00
2023-05-25T04:53:14.280Z,26.80
2023-05-25T04:56:16.743Z,26.30
2023-05-25T04:59:18.837Z,25.80
2023-05-25T05:02:21.199Z,25.50
2023-05-25T05:05:23.402Z,24.80
2023-05-25T05:08:25.812Z,24.60
2023-05-25T05:11:31.463Z,24.10
2023-05-25T05:14:33.679Z,23.60
2023-05-25T05:17:36.267Z,23.30
2023-05-25T05:20:39.036Z,23.10
2023-05-25T05:23:45.181Z,23.20
2023-05-25T05:26:57.365Z,23.10
2023-05-25T05:30:00.852Z,23.10
2023-05-25T05:33:03.318Z,23.70
2023-05-25T05:36:05.723Z,23.40
2023-05-25T05:39:08.017Z,23.30
2023-05-25T05:42:10.033Z,22.90
2023-05-25T05:45:12.354Z,23.20
2023-05-25T05:48:14.429Z,22.70
2023-05-25T05:51:16.742Z,22.50
2023-05-25T05:54:18.808Z,22.40
2023-05-25T05:57:21.190Z,22.40
2023-05-25T06:00:23.390Z,22.80
2023-05-25T06:03:27.751Z,22.60
2023-05-25T06:06:29.810Z,22.10
2023-05-25T06:09:33.053Z,22.20
2023-05-25T06:12:35.052Z,22.10
2023-05-25T06:15:37.490Z,22.60
2023-05-25T06:18:39.663Z,22.30
2023-05-25T06:21:42.180Z,21.90
2023-05-25T06:24:44.149Z,22.20
2023-05-25T06:27:46.518Z,22.40
2023-05-25T06:30:48.515Z,22.20
2023-05-25T06:33:51.327Z,22.40
2023-05-25T06:36:53.492Z,22.90
2023-05-25T06:39:57.586Z,22.90
2023-05-25T06:42:59.716Z,23.40
2023-05-25T06:46:02.026Z,22.40
2023-05-25T06:49:04.491Z,23.00
2023-05-25T06:52:07.319Z,22.80
2023-05-25T06:55:09.590Z,23.70
2023-05-25T06:58:11.811Z,25.00
2023-05-25T07:01:13.875Z,24.40
2023-05-25T07:04:16.313Z,25.40
2023-05-25T07:07:18.364Z,24.80
2023-05-25T07:10:20.984Z,24.50
2023-05-25T07:13:23.092Z,23.40
2023-05-25T07:16:26.233Z,22.70
2023-05-25T07:19:28.229Z,22.70
2023-05-25T07:22:30.721Z,22.40
2023-05-25T07:25:32.696Z,23.10
2023-05-25T07:28:35.386Z,23.00
2023-05-25T07:31:37.454Z,23.20
2023-05-25T07:34:40.101Z,22.30
2023-05-25T07:37:42.113Z,22.50
2023-05-25T07:40:47.082Z,22.50
2023-05-25T07:43:49.102Z,22.90
2023-05-25T07:46:51.498Z,22.90
2023-05-25T07:49:54.153Z,23.10
2023-05-25T07:52:58.561Z,23.60
2023-05-25T07:56:00.608Z,23.30
2023-05-25T07:59:03.107Z,23.60
2023-05-25T08:02:05.195Z,23.60
2023-05-25T08:05:08.041Z,25.20
2023-05-25T08:08:10.711Z,24.80
2023-05-25T08:11:13.351Z,24.70
2023-05-25T08:14:16.280Z,24.60
2023-05-25T08:17:18.731Z,24.00
2023-05-25T08:20:20.877Z,25.20
2023-05-25T08:23:23.422Z,24.50
2023-05-25T08:26:38.384Z,24.30
2023-05-25T08:29:47.733Z,23.70
2023-05-25T08:32:49.814Z,23.40
2023-05-25T08:35:52.899Z,23.10
2023-05-25T08:38:54.920Z,23.00
2023-05-25T08:41:57.247Z,23.80
2023-05-25T08:44:59.570Z,24.50
2023-05-25T08:48:08.205Z,25.30
2023-05-25T08:51:13.363Z,25.10
2023-05-25T08:54:24.492Z,25.20
2023-05-25T08:57:48.092Z,24.60
2023-05-25T09:00:56.802Z,24.40
2023-05-25T09:04:01.634Z,23.60
2023-05-25T09:07:10.167Z,23.90
2023-05-25T09:10:14.439Z,24.30
2023-05-25T09:13:22.115Z,25.00
2023-05-25T09:16:26.454Z,25.60
2023-05-25T09:19:28.817Z,25.30
2023-05-25T09:22:31.385Z,24.90
2023-05-25T09:25:34.740Z,26.10
2023-05-25T09:28:46.710Z,26.50
2023-05-25T09:31:49.127Z,27.10
2023-05-25T09:34:51.378Z,27.20
2023-05-25T09:37:55.480Z,28.00
2023-05-25T09:40:57.917Z,27.70
2023-05-25T09:44:10.531Z,26.40
2023-05-25T09:47:15.359Z,26.30
2023-05-25T09:50:18.025Z,26.90
2023-05-25T09:53:20.394Z,26.00
2023-05-25T09:56:23.877Z,25.70
2023-05-25T09:59:25.916Z,25.30
2023-05-25T10:02:28.512Z,25.00
2023-05-25T10:05:30.558Z,25.00
2023-05-25T10:08:33.574Z,24.00
2023-05-25T10:11:40.275Z,24.20
2023-05-25T10:14:43.828Z,25.20
2023-05-25T10:17:57.726Z,24.80
2023-05-25T10:21:04.744Z,25.30
2023-05-25T10:24:33.092Z,25.40
2023-05-25T10:27:40.673Z,24.80
2023-05-25T10:30:43.273Z,25.60
2023-05-25T10:33:50.590Z,23.80
2023-05-25T10:36:56.005Z,24.60
2023-05-25T10:40:00.075Z,25.40
2023-05-25T10:43:02.944Z,25.70
2023-05-25T10:46:08.400Z,25.70
2023-05-25T10:49:10.690Z,25.60
2023-05-25T10:52:20.702Z,26.50
2023-05-25T10:55:22.819Z,26.30
2023-05-25T10:58:27.664Z,25.50
2023-05-25T11:01:33.725Z,24.90
2023-05-25T11:04:37.671Z,25.00
2023-05-25T11:08:10.147Z,24.40
2023-05-25T11:11:12.442Z,24.20
2023-05-25T11:14:32.471Z,24.10
2023-05-25T11:17:46.023Z,24.80
2023-05-25T11:20:48.689Z,24.90
2023-05-25T11:24:02.955Z,25.30
2023-05-25T11:27:06.162Z,25.30
2023-05-25T11:30:09.571Z,25.80
2023-05-25T11:33:11.819Z,26.20
2023-05-25T11:36:15.514Z,26.60
2023-05-25T11:39:23.145Z,26.40
2023-05-25T11:42:26.291Z,27.10
2023-05-25T11:45:34.116Z,26.40
2023-05-25T11:48:36.499Z,26.10
2023-05-25T11:51:38.720Z,25.90
2023-05-25T11:54:42.070Z,25.10
2023-05-25T11:57:44.369Z,24.80
2023-05-25T12:00:46.675Z,24.50
2023-05-25T12:03:57.188Z,24.30
2023-05-25T12:07:07.762Z,25.00
2023-05-25T12:10:11.753Z,25.80
2023-05-25T12:13:14.814Z,25.80
2023-05-25T12:16:16.942Z,25.30
2023-05-25T12:19:19.434Z,25.30
2023-05-25T12:22:21.727Z,24.50
2023-05-25T12:25:24.554Z,24.30
2023-05-25T12:28:26.624Z,24.50
2023-05-25T12:31:34.228Z,24.40
2023-05-25T12:34:36.798Z,24.00
2023-05-25T12:37:39.051Z,23.80
2023-05-25T12:40:42.176Z,23.70
2023-05-25T12:43:44.670Z,24.20
2023-05-25T12:46:47.170Z,23.80
2023-05-25T12:50:13.808Z,23.40
2023-05-25T12:53:15.933Z,23.20
2023-05-25T12:56:18.211Z,23.10
2023-05-25T12:59:20.415Z,22.80
2023-05-25T13:02:22.731Z,23.90
2023-05-25T13:05:26.189Z,23.70
2023-05-25T13:08:29.270Z,23.90
2023-05-25T13:11:31.225Z,23.90
2023-05-25T13:14:33.509Z,24.00
2023-05-25T13:17:35.767Z,23.90
2023-05-25T13:20:38.472Z,24.00
2023-05-25T13:23:40.628Z,24.80
2023-05-25T13:26:46.053Z,24.90
2023-05-25T13:29:48.866Z,24.60
2023-05-25T13:32:52.751Z,24.40
2023-05-25T13:35:58.872Z,24.40
2023-05-25T13:39:02.154Z,23.90
2023-05-25T13:42:04.337Z,24.70
2023-05-25T13:45:07.213Z,25.20
2023-05-25T13:48:09.533Z,26.20
2023-05-25T13:51:11.912Z,26.10
2023-05-25T13:54:13.973Z,26.70
2023-05-25T13:57:16.395Z,25.50
2023-05-25T14:00:18.921Z,25.20
2023-05-25T14:03:21.980Z,25.30
2023-05-25T14:06:25.050Z,25.40
2023-05-25T14:09:27.551Z,25.00
2023-05-25T14:12:29.583Z,24.40
2023-05-25T14:15:31.845Z,24.70
2023-05-25T14:18:33.763Z,24.90
2023-05-25T14:21:37.340Z,24.70
2023-05-25T14:24:39.396Z,24.40
2023-05-25T14:27:41.663Z,25.10
2023-05-25T14:30:43.685Z,25.10
2023-05-25T14:33:46.166Z,25.10
2023-05-25T14:36:48.112Z,24.70
2023-05-25T14:39:50.340Z,24.50
2023-05-25T14:42:55.317Z,24.50
2023-05-25T14:45:57.728Z,24.30
2023-05-25T14:48:59.746Z,24.50
2023-05-25T14:52:02.105Z,25.00
2023-05-25T14:55:04.282Z,25.50
2023-05-25T14:58:06.551Z,25.30
2023-05-25T15:01:08.563Z,24.50
2023-05-25T15:04:10.991Z,24.40
2023-05-25T15:07:14.583Z,25.00
2023-05-25T15:10:16.973Z,26.10
2023-05-25T15:13:22.434Z,25.90
2023-05-25T15:16:24.963Z,25.30
2023-05-25T15:19:26.998Z,25.30
2023-05-25T15:22:29.259Z,24.80
2023-05-25T15:25:35.649Z,24.80
2023-05-25T15:28:38.273Z,25.50
2023-05-25T15:31:40.501Z,24.10
2023-05-25T15:34:42.999Z,23.90
2023-05-25T15:37:45.099Z,23.60
2023-05-25T15:40:47.375Z,23.80
2023-05-25T15:43:58.080Z,23.60
2023-05-25T15:47:00.766Z,24.20
2023-05-25T15:50:02.738Z,24.10
2023-05-25T15:53:05.428Z,23.90
2023-05-25T15:56:07.435Z,23.90
2023-05-25T15:59:09.745Z,23.60
2023-05-25T16:02:11.701Z,23.70
2023-05-25T16:05:14.112Z,23.60
2023-05-25T16:08:16.071Z,23.70
2023-05-25T16:11:18.700Z,23.30
2023-05-25T16:14:20.788Z,23.30
2023-05-25T16:17:23.029Z,23.60
2023-05-25T16:20:25.109Z,24.20
2023-05-25T16:23:27.631Z,24.10
2023-05-25T16:26:29.704Z,24.10
2023-05-25T16:29:32.279Z,24.00
2023-05-25T16:32:34.302Z,24.00
2023-05-25T16:35:36.735Z,24.10
2023-05-25T16:38:38.709Z,23.90
2023-05-25T16:41:41.299Z,23.90
2023-05-25T16:44:43.284Z,23.70
2023-05-25T16:47:45.644Z,23.30
2023-05-25T16:50:47.801Z,23.40
2023-05-25T16:53:51.848Z,23.10
2023-05-25T16:56:55.012Z,22.80
2023-05-25T16:59:57.493Z,23.30
2023-05-25T17:02:59.548Z,23.80
2023-05-25T17:06:02.010Z,23.50
2023-05-25T17:09:04.144Z,23.50
2023-05-25T17:12:07.036Z,23.60
2023-05-25T17:15:11.121Z,23.20
2023-05-25T17:18:13.534Z,23.50
2023-05-25T17:21:15.564Z,23.20
2023-05-25T17:24:18.162Z,23.50
2023-05-25T17:27:20.202Z,23.50
2023-05-25T17:30:22.543Z,23.10
2023-05-25T17:33:26.060Z,23.10
2023-05-25T17:36:28.323Z,23.20
2023-05-25T17:39:30.355Z,23.30
2023-05-25T17:42:32.739Z,24.00
2023-05-25T17:45:34.705Z,23.40
2023-05-25T17:48:37.510Z,23.40
2023-05-25T17:51:39.657Z,23.60
2023-05-25T17:54:41.944Z,24.00
2023-05-25T17:57:43.928Z,24.10
2023-05-25T18:00:46.804Z,24.20
2023-05-25T18:03:53.417Z,24.10
2023-05-25T18:06:56.760Z,24.60
2023-05-25T18:09:58.851Z,24.40
2023-05-25T18:13:01.186Z,24.60
2023-05-25T18:16:03.256Z,24.70
2023-05-25T18:19:06.795Z,24.50
2023-05-25T18:22:08.856Z,24.40
2023-05-25T18:25:11.219Z,24.80
2023-05-25T18:28:15.144Z,24.50
2023-05-25T18:31:18.041Z,24.60
2023-05-25T18:34:20.202Z,24.40
2023-05-25T18:37:23.265Z,24.30
2023-05-25T18:40:25.243Z,24.50
2023-05-25T18:43:27.595Z,24.40
2023-05-25T18:46:29.834Z,24.50
2023-05-25T18:49:34.523Z,24.40
2023-05-25T18:52:36.515Z,24.60
2023-05-25T18:55:38.787Z,24.80
2023-05-25T18:58:41.093Z,24.90
2023-05-25T19:01:43.433Z,25.10
2023-05-25T19:04:45.722Z,25.10
2023-05-25T19:07:58.333Z,24.90
2023-05-25T19:11:01.352Z,25.00
2023-05-25T19:14:04.574Z,25.00
2023-05-25T19:17:06.611Z,25.10
2023-05-25T19:20:09.619Z,25.30
2023-05-25T19:23:12.160Z,25.50
2023-05-25T19:26:14.788Z,25.30
2023-05-25T19:29:16.939Z,25.60
2023-05-25T19:32:19.189Z,25.60
2023-05-25T19:35:21.456Z,25.40
2023-05-25T19:38:26.605Z,25.80
2023-05-25T19:41:30.910Z,26.10
2023-05-25T19:44:33.331Z,26.50
2023-05-25T19:47:36.006Z,26.70
2023-05-25T19:50:38.297Z,27.40
2023-05-25T19:53:40.717Z,27.90
2023-05-25T19:56:44.301Z,28.40
2023-05-25T19:59:46.747Z,28.90
2023-05-25T20:02:51.204Z,29.00
2023-05-25T20:05:53.395Z,29.10
2023-05-25T20:08:55.784Z,29.60
2023-05-25T20:11:58.608Z,29.70
2023-05-25T20:15:00.949Z,29.80
2023-05-25T20:18:02.976Z,29.60
2023-05-25T20:21:05.735Z,29.40
2023-05-25T20:24:07.680Z,29.30
2023-05-25T20:27:10.080Z,29.30
2023-05-25T20:30:13.792Z,29.20
2023-05-25T20:33:17.328Z,29.30
2023-05-25T20:36:19.368Z,29.70
2023-05-25T20:39:21.678Z,29.60
2023-05-25T20:42:23.712Z,29.80
2023-05-25T20:45:28.822Z,29.60
2023-05-25T20:48:31.528Z,29.60
2023-05-25T20:51:34.351Z,29.40
2023-05-25T20:54:41.862Z,29.70
2023-05-25T20:57:45.483Z,29.50
2023-05-25T21:00:49.739Z,29.50
2023-05-25T21:03:52.692Z,29.90
2023-05-25T21:06:55.719Z,30.00
2023-05-25T21:09:59.942Z,30.50
2023-05-25T21:13:05.611Z,30.90
2023-05-25T21:16:12.377Z,30.60
2023-05-25T21:19:15.087Z,31.40
2023-05-25T21:22:18.394Z,32.40
2023-05-25T21:25:21.037Z,32.70
2023-05-25T21:28:23.866Z,32.80
2023-05-25T21:31:26.181Z,34.40
2023-05-25T21:34:28.571Z,34.90
2023-05-25T21:37:30.719Z,34.90
2023-05-25T21:40:32.970Z,34.80
2023-05-25T21:43:34.990Z,34.60
2023-05-25T21:46:39.055Z,35.00
2023-05-25T21:49:41.661Z,35.60
2023-05-25T21:52:44.555Z,34.60
2023-05-25T21:55:47.721Z,34.30
2023-05-25T21:58:53.725Z,34.60
2023-05-25T22:01:55.859Z,34.60
2023-05-25T22:04:58.491Z,33.70
2023-05-25T22:08:03.888Z,33.00
2023-05-25T22:11:06.194Z,32.40
2023-05-25T22:14:08.163Z,32.90
2023-05-25T22:17:10.535Z,33.00
2023-05-25T22:20:12.613Z,32.90
2023-05-25T22:23:15.333Z,33.00
2023-05-25T22:26:17.377Z,33.10
2023-05-25T22:29:19.722Z,33.00
2023-05-25T22:32:21.880Z,33.50
2023-05-25T22:35:24.372Z,33.60
2023-05-25T22:38:26.305Z,34.10
2023-05-25T22:41:28.514Z,34.60
2023-05-25T22:44:30.500Z,34.30
2023-05-25T22:47:32.771Z,34.20
2023-05-25T22:50:34.985Z,33.60
2023-05-25T22:53:37.232Z,33.10
2023-05-25T22:56:39.220Z,32.80
2023-05-25T22:59:41.455Z,33.40
2023-05-25T23:02:43.511Z,34.00
2023-05-25T23:05:46.092Z,34.50
2023-05-25T23:08:48.402Z,34.40
2023-05-25T23:11:50.822Z,35.00
2023-05-25T23:14:53.495Z,34.50
2023-05-25T23:17:55.991Z,34.00
2023-05-25T23:20:58.010Z,33.00
2023-05-25T23:24:00.540Z,33.10
2023-05-25T23:27:02.966Z,32.80
2023-05-25T23:30:06.877Z,32.00
2023-05-25T23:33:10.258Z,32.40
2023-05-25T23:36:14.055Z,32.30
2023-05-25T23:39:16.054Z,31.70
2023-05-25T23:42:18.682Z,32.20
2023-05-25T23:45:20.848Z,31.80
2023-05-25T23:48:23.454Z,32.00
2023-05-25T23:51:25.594Z,31.50
2023-05-25T23:54:27.980Z,31.50
2023-05-25T23:57:29.961Z,30.90
